createdAt,value
2018-08-09T00:02:42.008Z,68.53
2018-08-09T00:05:40.064Z,68.33
2018-08-09T00:08:38.111Z,67.80
2018-08-09T00:11:35.271Z,67.88
2018-08-09T00:14:33.260Z,66.92
2018-08-09T00:17:31.344Z,66.88
2018-08-09T00:20:29.418Z,68.16
2018-08-09T00:23:27.531Z,67.22
2018-08-09T00:26:25.343Z,68.02
2018-08-09T00:29:23.328Z,67.99
2018-08-09T00:32:21.107Z,68.67
2018-08-09T00:35:19.087Z,69.21
2018-08-09T00:38:16.756Z,69.77
2018-08-09T00:41:14.722Z,70.21
2018-08-09T00:44:12.727Z,69.21
2018-08-09T00:47:09.809Z,69.18
2018-08-09T00:50:07.004Z,69.78
2018-08-09T00:53:04.241Z,69.84
2018-08-09T00:56:01.579Z,70.91
2018-08-09T00:58:59.724Z,71.34
2018-08-09T01:01:57.343Z,70.42
2018-08-09T01:04:54.343Z,70.69
2018-08-09T01:07:52.190Z,69.51
2018-08-09T01:10:49.665Z,70.18
2018-08-09T01:13:47.438Z,70.98
2018-08-09T01:16:45.583Z,70.45
2018-08-09T01:19:43.445Z,70.89
2018-08-09T01:22:41.383Z,71.47
2018-08-09T01:25:39.199Z,71.36
2018-08-09T01:28:37.264Z,72.06
2018-08-09T01:31:42.311Z,71.76
2018-08-09T01:34:40.507Z,71.15
2018-08-09T01:37:37.643Z,71.82
2018-08-09T01:40:34.833Z,71.43
2018-08-09T01:43:44.456Z,71.80
2018-08-09T01:46:42.427Z,71.74
2018-08-09T01:49:39.883Z,70.05
2018-08-09T01:52:36.950Z,69.82
2018-08-09T01:55:34.297Z,70.61
2018-08-09T01:58:32.386Z,70.85
2018-08-09T02:01:30.475Z,72.70
2018-08-09T02:04:28.048Z,73.59
2018-08-09T02:07:25.204Z,73.45
2018-08-09T02:10:22.854Z,72.34
2018-08-09T02:13:20.439Z,73.00
2018-08-09T02:16:17.884Z,73.10
2018-08-09T02:19:15.920Z,74.01
2018-08-09T02:22:13.936Z,73.75
2018-08-09T02:25:12.028Z,73.37
2018-08-09T02:28:09.885Z,72.97
2018-08-09T02:31:07.880Z,72.07
2018-08-09T02:34:05.938Z,72.25
2018-08-09T02:37:03.698Z,71.55
2018-08-09T02:40:01.699Z,70.06
2018-08-09T02:42:59.776Z,71.81
2018-08-09T02:45:57.183Z,71.40
2018-08-09T02:48:55.071Z,73.10
2018-08-09T02:51:52.136Z,72.94
2018-08-09T02:54:49.792Z,74.19
2018-08-09T02:57:47.894Z,74.30
2018-08-09T03:00:45.752Z,74.67
2018-08-09T03:03:43.843Z,73.76
2018-08-09T03:06:40.993Z,72.99
2018-08-09T03:09:38.142Z,73.52
2018-08-09T03:12:35.308Z,73.01
2018-08-09T03:15:32.968Z,73.13
2018-08-09T03:18:30.663Z,73.35
2018-08-09T03:21:28.210Z,72.40
2018-08-09T03:24:26.019Z,73.00
2018-08-09T03:27:23.742Z,73.19
2018-08-09T03:30:21.515Z,72.84
2018-08-09T03:33:18.851Z,74.21
2018-08-09T03:36:16.223Z,73.84
2018-08-09T03:39:14.219Z,73.53
2018-08-09T03:42:12.179Z,73.88
2018-08-09T03:45:10.253Z,73.96
2018-08-09T03:48:08.363Z,74.93
2018-08-09T03:51:05.687Z,74.90
2018-08-09T03:54:03.678Z,73.91
2018-08-09T03:57:01.636Z,73.17
2018-08-09T03:59:58.707Z,73.25
2018-08-09T04:02:56.784Z,73.65
2018-08-09T04:05:54.516Z,74.75
2018-08-09T04:08:51.699Z,75.02
2018-08-09T04:11:49.784Z,75.33
2018-08-09T04:14:48.049Z,75.13
2018-08-09T04:17:46.169Z,75.26
2018-08-09T04:20:43.510Z,74.97
2018-08-09T04:23:40.743Z,74.90
2018-08-09T04:26:38.921Z,73.90
2018-08-09T04:29:36.785Z,72.58
2018-08-09T04:32:34.363Z,73.70
2018-08-09T04:35:32.311Z,72.37
2018-08-09T04:38:29.898Z,72.40
2018-08-09T04:41:27.342Z,71.92
2018-08-09T04:44:25.044Z,69.47
2018-08-09T04:47:23.218Z,69.21
2018-08-09T04:50:21.059Z,68.16
2018-08-09T04:53:18.988Z,65.78
2018-08-09T04:56:16.936Z,64.02
2018-08-09T04:59:14.791Z,64.15
2018-08-09T05:02:12.743Z,63.61
2018-08-09T05:05:10.042Z,62.95
2018-08-09T05:08:08.059Z,63.61
2018-08-09T05:11:06.115Z,62.45
2018-08-09T05:14:04.088Z,59.62
2018-08-09T05:17:01.906Z,60.43
2018-08-09T05:19:59.884Z,58.99
2018-08-09T05:22:57.861Z,57.83
2018-08-09T05:25:55.781Z,56.68
2018-08-09T05:28:53.679Z,54.67
2018-08-09T05:31:50.779Z,54.51
2018-08-09T05:34:47.927Z,53.13
2018-08-09T05:37:45.072Z,51.85
2018-08-09T05:40:42.894Z,53.24
2018-08-09T05:43:40.931Z,53.85
2018-08-09T05:46:38.722Z,51.99
2018-08-09T05:49:36.657Z,50.88
2018-08-09T05:52:34.607Z,49.68
2018-08-09T05:55:32.510Z,52.02
2018-08-09T05:58:30.560Z,51.87
2018-08-09T06:01:28.364Z,50.48
2018-08-09T06:04:25.557Z,50.04
2018-08-09T06:07:23.700Z,49.38
2018-08-09T06:10:21.867Z,48.77
2018-08-09T06:13:19.208Z,49.03
2018-08-09T06:16:17.456Z,47.61
2018-08-09T06:19:14.795Z,46.85
2018-08-09T06:22:12.835Z,48.99
2018-08-09T06:25:09.873Z,48.73
2018-08-09T06:28:07.905Z,50.56
2018-08-09T06:31:05.755Z,54.25
2018-08-09T06:34:03.622Z,52.78
2018-08-09T06:37:00.897Z,52.42
2018-08-09T06:39:58.841Z,52.18
2018-08-09T06:42:56.336Z,52.62
2018-08-09T06:45:54.394Z,52.14
2018-08-09T06:48:52.282Z,50.02
2018-08-09T06:51:50.218Z,50.22
2018-08-09T06:54:48.123Z,49.69
2018-08-09T06:57:46.061Z,50.63
2018-08-09T07:00:43.890Z,52.17
2018-08-09T07:03:41.835Z,55.13
2018-08-09T07:06:39.703Z,55.98
2018-08-09T07:09:36.967Z,55.51
2018-08-09T07:12:34.271Z,55.78
2018-08-09T07:15:32.136Z,55.74
2018-08-09T07:18:30.211Z,57.83
2018-08-09T07:21:28.308Z,58.12
2018-08-09T07:24:26.055Z,57.68
2018-08-09T07:27:23.806Z,56.31
2018-08-09T07:30:22.875Z,56.25
2018-08-09T07:33:20.994Z,56.55
2018-08-09T07:36:19.050Z,58.01
2018-08-09T07:39:17.259Z,58.69
2018-08-09T07:42:15.069Z,59.49
2018-08-09T07:45:13.091Z,62.28
2018-08-09T07:48:10.479Z,68.87
2018-08-09T07:51:08.528Z,68.70
2018-08-09T07:54:06.555Z,69.66
2018-08-09T07:57:04.474Z,75.05
2018-08-09T08:00:02.133Z,74.26
2018-08-09T08:02:59.983Z,74.69
2018-08-09T08:05:57.592Z,76.15
2018-08-09T08:08:54.807Z,74.06
2018-08-09T08:11:52.182Z,78.82
2018-08-09T08:14:49.646Z,79.23
2018-08-09T08:17:47.639Z,80.37
2018-08-09T08:20:45.600Z,80.62
2018-08-09T08:23:43.499Z,81.28
2018-08-09T08:26:41.615Z,83.57
2018-08-09T08:29:39.663Z,81.21
2018-08-09T08:32:37.780Z,83.14
2018-08-09T08:35:35.896Z,81.84
2018-08-09T08:38:34.016Z,82.69
2018-08-09T08:41:32.203Z,83.34
2018-08-09T08:44:29.402Z,81.11
2018-08-09T08:47:26.991Z,82.03
2018-08-09T08:50:24.839Z,82.39
2018-08-09T08:53:22.579Z,81.84
2018-08-09T08:56:20.590Z,83.31
2018-08-09T08:59:18.611Z,83.36
2018-08-09T09:02:16.216Z,84.17
2018-08-09T09:05:14.378Z,86.02
2018-08-09T09:08:11.991Z,85.84
2018-08-09T09:11:10.029Z,86.05
2018-08-09T09:14:08.079Z,87.32
2018-08-09T09:17:06.000Z,87.64
2018-08-09T09:20:03.925Z,86.91
2018-08-09T09:23:01.921Z,86.48
2018-08-09T09:26:00.113Z,84.82
2018-08-09T09:28:58.350Z,82.58
2018-08-09T09:31:55.548Z,82.63
2018-08-09T09:34:53.702Z,82.92
2018-08-09T09:37:52.579Z,82.07
2018-08-09T09:40:49.548Z,83.35
2018-08-09T09:43:46.400Z,82.35
2018-08-09T09:46:44.412Z,81.65
2018-08-09T09:49:42.262Z,80.87
2018-08-09T09:52:40.146Z,78.27
2018-08-09T09:55:38.218Z,75.00
2018-08-09T09:58:35.947Z,70.81
2018-08-09T10:01:39.495Z,76.37
2018-08-09T10:04:37.557Z,70.62
2018-08-09T10:07:35.329Z,71.73
2018-08-09T10:10:32.622Z,67.51
2018-08-09T10:13:30.671Z,66.84
2018-08-09T10:16:28.650Z,70.93
2018-08-09T10:19:26.316Z,73.73
2018-08-09T10:22:24.484Z,72.14
2018-08-09T10:25:21.571Z,70.73
2018-08-09T10:28:19.582Z,71.58
2018-08-09T10:31:17.682Z,68.98
2018-08-09T10:34:15.612Z,70.09
2018-08-09T10:37:12.599Z,69.30
2018-08-09T10:40:10.380Z,71.19
2018-08-09T10:43:08.228Z,70.45
2018-08-09T10:46:06.096Z,70.43
2018-08-09T10:49:04.128Z,68.80
2018-08-09T10:52:02.044Z,67.18
2018-08-09T10:54:59.947Z,64.32
2018-08-09T10:57:56.914Z,61.82
2018-08-09T11:00:54.130Z,62.43
2018-08-09T11:03:51.418Z,61.24
2018-08-09T11:06:49.179Z,62.87
2018-08-09T11:09:46.426Z,60.20
2018-08-09T11:12:44.005Z,59.99
2018-08-09T11:15:42.091Z,60.76
2018-08-09T11:18:39.406Z,58.96
2018-08-09T11:21:36.572Z,57.84
2018-08-09T11:24:34.467Z,57.00
2018-08-09T11:27:32.306Z,57.47
2018-08-09T11:30:30.211Z,56.88
2018-08-09T11:33:28.471Z,55.59
2018-08-09T11:36:25.573Z,55.50
2018-08-09T11:39:23.129Z,57.81
2018-08-09T11:42:20.510Z,58.79
2018-08-09T11:45:17.684Z,57.05
2018-08-09T11:48:15.622Z,57.08
2018-08-09T11:51:13.354Z,56.81
2018-08-09T11:54:11.532Z,57.85
2018-08-09T11:57:08.559Z,57.26
2018-08-09T12:00:06.247Z,56.46
2018-08-09T12:03:03.222Z,55.64
2018-08-09T12:06:01.012Z,56.23
2018-08-09T12:08:58.751Z,55.02
2018-08-09T12:11:56.671Z,55.59
2018-08-09T12:14:54.917Z,54.72
2018-08-09T12:17:52.571Z,55.08
2018-08-09T12:20:50.763Z,54.93
2018-08-09T12:23:48.810Z,54.96
2018-08-09T12:26:46.168Z,54.62
2018-08-09T12:29:43.517Z,53.18
2018-08-09T12:32:40.896Z,52.17
2018-08-09T12:35:37.971Z,53.87
2018-08-09T12:38:36.267Z,51.85
2018-08-09T12:41:34.007Z,53.86
2018-08-09T12:44:32.024Z,52.61
2018-08-09T12:47:29.327Z,52.60
2018-08-09T12:50:28.175Z,53.30
2018-08-09T12:53:25.067Z,52.59
2018-08-09T12:56:22.292Z,52.54
2018-08-09T12:59:19.311Z,51.51
2018-08-09T13:02:16.521Z,51.86
2018-08-09T13:05:15.084Z,52.43
2018-08-09T13:08:13.033Z,52.82
2018-08-09T13:11:11.305Z,51.44
2018-08-09T13:14:09.272Z,51.89
2018-08-09T13:17:07.332Z,50.50
2018-08-09T13:20:04.495Z,50.63
2018-08-09T13:23:02.676Z,51.39
2018-08-09T13:26:00.431Z,51.93
2018-08-09T13:28:58.409Z,51.90
2018-08-09T13:31:55.494Z,51.19
2018-08-09T13:34:53.328Z,48.82
2018-08-09T13:37:51.286Z,50.37
2018-08-09T13:40:48.359Z,50.86
2018-08-09T13:43:46.527Z,49.86
2018-08-09T13:46:43.526Z,48.95
2018-08-09T13:49:41.654Z,48.03
2018-08-09T13:52:38.728Z,48.76
2018-08-09T13:55:36.740Z,48.63
2018-08-09T13:58:42.787Z,48.69
2018-08-09T14:01:40.871Z,47.21
2018-08-09T14:04:38.716Z,48.41
2018-08-09T14:07:35.788Z,48.14
2018-08-09T14:10:33.685Z,48.72
2018-08-09T14:13:30.816Z,45.99
2018-08-09T14:16:28.603Z,45.99
2018-08-09T14:19:26.496Z,46.17
2018-08-09T14:22:23.406Z,42.46
2018-08-09T14:25:21.238Z,40.85
2018-08-09T14:28:19.243Z,39.84
2018-08-09T14:31:16.987Z,40.33
2018-08-09T14:34:14.901Z,39.86
2018-08-09T14:37:13.156Z,40.58
2018-08-09T14:40:10.315Z,40.58
2018-08-09T14:43:08.055Z,41.44
2018-08-09T14:46:06.071Z,42.01
2018-08-09T14:49:04.224Z,41.68
2018-08-09T14:52:02.292Z,41.79
2018-08-09T14:55:00.193Z,40.57
2018-08-09T14:57:57.343Z,41.42
2018-08-09T15:00:54.388Z,48.61
2018-08-09T15:03:51.958Z,56.04
2018-08-09T15:06:49.128Z,61.22
2018-08-09T15:09:47.196Z,67.35
2018-08-09T15:12:44.431Z,69.48
2018-08-09T15:15:42.425Z,71.50
2018-08-09T15:18:40.629Z,70.88
2018-08-09T15:21:37.922Z,72.86
2018-08-09T15:24:35.300Z,72.62
2018-08-09T15:27:33.524Z,73.60
2018-08-09T15:30:39.327Z,74.13
2018-08-09T15:33:36.535Z,73.87
2018-08-09T15:36:34.446Z,74.62
2018-08-09T15:39:33.521Z,76.03
2018-08-09T15:42:31.272Z,76.08
2018-08-09T15:45:30.007Z,76.70
2018-08-09T15:48:27.874Z,77.69
2018-08-09T15:51:25.736Z,77.87
2018-08-09T15:54:22.840Z,78.08
2018-08-09T15:57:21.150Z,77.95
2018-08-09T16:00:21.250Z,78.17
2018-08-09T16:03:19.377Z,76.92
2018-08-09T16:06:17.255Z,77.73
2018-08-09T16:09:15.277Z,77.41
2018-08-09T16:12:13.203Z,76.73
2018-08-09T16:15:11.409Z,75.97
2018-08-09T16:18:09.568Z,74.15
2018-08-09T16:21:06.854Z,74.71
2018-08-09T16:24:04.126Z,74.77
2018-08-09T16:27:01.282Z,73.92
2018-08-09T16:29:58.602Z,73.47
2018-08-09T16:32:56.526Z,72.96
2018-08-09T16:35:53.703Z,73.33
2018-08-09T16:38:51.762Z,72.88
2018-08-09T16:41:49.717Z,72.76
2018-08-09T16:44:47.955Z,72.31
2018-08-09T16:47:45.760Z,72.92
2018-08-09T16:50:43.203Z,71.83
2018-08-09T16:53:41.418Z,71.67
2018-08-09T16:56:39.308Z,71.71
2018-08-09T16:59:36.660Z,69.16
2018-08-09T17:02:34.731Z,69.15
2018-08-09T17:05:35.759Z,69.44
2018-08-09T17:08:33.725Z,70.55
2018-08-09T17:11:31.755Z,69.31
2018-08-09T17:14:29.772Z,70.34
2018-08-09T17:17:27.989Z,70.69
2018-08-09T17:20:36.400Z,71.25
2018-08-09T17:23:34.479Z,70.82
2018-08-09T17:26:32.636Z,70.18
2018-08-09T17:29:29.744Z,71.20
2018-08-09T17:32:27.706Z,70.95
2018-08-09T17:35:26.817Z,71.79
2018-08-09T17:38:24.912Z,71.81
2018-08-09T17:41:23.034Z,72.66
2018-08-09T17:44:20.033Z,72.61
2018-08-09T17:47:17.983Z,72.62
2018-08-09T17:50:15.911Z,72.27
2018-08-09T17:53:14.838Z,72.31
2018-08-09T17:56:12.712Z,71.66
2018-08-09T17:59:10.687Z,71.47
2018-08-09T18:02:08.723Z,71.22
2018-08-09T18:05:06.888Z,71.80
2018-08-09T18:08:04.696Z,71.53
2018-08-09T18:11:02.844Z,71.74
2018-08-09T18:14:00.886Z,72.33
2018-08-09T18:16:58.926Z,71.73
2018-08-09T18:19:56.419Z,72.37
2018-08-09T18:22:53.969Z,71.83
2018-08-09T18:25:51.903Z,71.05
2018-08-09T18:28:49.851Z,71.31
2018-08-09T18:31:47.848Z,71.01
2018-08-09T18:34:45.996Z,70.54
2018-08-09T18:37:43.421Z,70.14
2018-08-09T18:40:42.545Z,69.95
2018-08-09T18:43:39.801Z,69.54
2018-08-09T18:46:37.792Z,68.58
2018-08-09T18:49:35.459Z,68.80
2018-08-09T18:52:33.608Z,68.56
2018-08-09T18:55:32.207Z,68.49
2018-08-09T18:58:29.324Z,68.10
2018-08-09T19:01:26.353Z,67.15
2018-08-09T19:04:24.246Z,68.27
2018-08-09T19:07:22.353Z,67.06
2018-08-09T19:10:22.316Z,66.94
2018-08-09T19:13:20.347Z,66.85
2018-08-09T19:16:18.478Z,65.86
2018-08-09T19:19:15.905Z,65.85
2018-08-09T19:22:13.855Z,64.98
2018-08-09T19:25:11.027Z,65.43
2018-08-09T19:28:08.356Z,65.36
2018-08-09T19:31:05.529Z,65.02
2018-08-09T19:34:03.204Z,65.29
2018-08-09T19:37:01.132Z,64.62
2018-08-09T19:39:59.160Z,65.06
2018-08-09T19:42:57.011Z,65.64
2018-08-09T19:45:55.068Z,65.15
2018-08-09T19:48:53.045Z,65.20
2018-08-09T19:51:50.279Z,65.29
2018-08-09T19:54:47.452Z,64.91
2018-08-09T19:57:45.541Z,65.13
2018-08-09T20:00:44.060Z,66.10
2018-08-09T20:03:41.192Z,65.77
2018-08-09T20:06:38.791Z,65.12
2018-08-09T20:09:36.055Z,65.15
2018-08-09T20:12:33.262Z,65.32
2018-08-09T20:15:33.456Z,65.03
2018-08-09T20:18:30.671Z,65.94
2018-08-09T20:21:28.508Z,65.45
2018-08-09T20:24:26.011Z,64.54
2018-08-09T20:27:23.311Z,64.11
2018-08-09T20:30:22.413Z,62.42
2018-08-09T20:33:20.332Z,63.58
2018-08-09T20:36:18.367Z,64.35
2018-08-09T20:39:18.458Z,64.52
2018-08-09T20:42:16.463Z,64.75
2018-08-09T20:45:13.553Z,65.03
2018-08-09T20:48:10.808Z,65.13
2018-08-09T20:51:08.675Z,65.56
2018-08-09T20:54:06.617Z,65.98
2018-08-09T20:57:04.214Z,66.06
2018-08-09T21:00:02.274Z,66.36
2018-08-09T21:03:01.026Z,66.99
2018-08-09T21:05:57.933Z,66.76
2018-08-09T21:08:55.079Z,65.98
2018-08-09T21:11:52.437Z,66.81
2018-08-09T21:14:50.420Z,66.41
2018-08-09T21:17:47.549Z,65.37
2018-08-09T21:20:45.111Z,65.12
2018-08-09T21:23:43.122Z,64.80
2018-08-09T21:26:41.973Z,64.30
2018-08-09T21:29:40.124Z,64.00
2018-08-09T21:32:38.060Z,64.03
2018-08-09T21:35:36.023Z,64.92
2018-08-09T21:38:33.992Z,64.77
2018-08-09T21:41:31.025Z,64.63
2018-08-09T21:44:28.107Z,64.14
2018-08-09T21:47:26.371Z,64.75
2018-08-09T21:50:27.425Z,64.78
2018-08-09T21:53:25.304Z,64.83
2018-08-09T21:56:23.418Z,65.59
2018-08-09T21:59:20.597Z,65.31
2018-08-09T22:02:18.276Z,65.02
2018-08-09T22:05:22.383Z,65.81
2018-08-09T22:08:25.479Z,65.79
2018-08-09T22:11:29.902Z,65.71
2018-08-09T22:14:33.227Z,65.26
2018-08-09T22:17:37.318Z,65.73
2018-08-09T22:20:40.790Z,65.71
2018-08-09T22:23:38.519Z,65.62
2018-08-09T22:26:35.727Z,65.48
2018-08-09T22:29:33.133Z,64.48
2018-08-09T22:32:30.868Z,65.23
2018-08-09T22:35:28.755Z,64.45
2018-08-09T22:38:26.142Z,64.27
2018-08-09T22:41:24.019Z,64.85
2018-08-09T22:44:21.278Z,64.34
2018-08-09T22:47:19.146Z,64.11
2018-08-09T22:50:16.431Z,64.49
2018-08-09T22:53:14.686Z,61.41
2018-08-09T22:56:12.524Z,61.06
2018-08-09T22:59:10.523Z,60.83
2018-08-09T23:02:08.806Z,60.98
2018-08-09T23:05:06.472Z,61.13
2018-08-09T23:08:04.456Z,60.65
2018-08-09T23:11:01.723Z,61.52
2018-08-09T23:13:58.936Z,61.35
2018-08-09T23:16:56.099Z,60.95
2018-08-09T23:19:54.386Z,61.12
2018-08-09T23:22:51.671Z,62.07
2018-08-09T23:25:49.899Z,61.13
2018-08-09T23:28:47.291Z,62.19
2018-08-09T23:31:44.850Z,62.72
2018-08-09T23:34:42.764Z,62.01
2018-08-09T23:37:40.704Z,62.46
2018-08-09T23:40:38.727Z,63.38
2018-08-09T23:43:36.631Z,62.68
2018-08-09T23:46:33.860Z,62.93
2018-08-09T23:49:31.848Z,63.24
2018-08-09T23:52:28.916Z,63.79
2018-08-09T23:55:26.783Z,64.70
2018-08-09T23:58:25.003Z,64.24
